Time;durP1;ratioP1;P1;durP2;ratioP2;P2;SDS_P1;SDS_P2;PMS_P1;PMS_P2;Temp;Humidity;BMP_temperature;BMP_pressure;BME280_temperature;BME280_humidity;BME280_pressure;Samples;Min_cycle;Max_cycle;Signal;HPM_P1;HPM_P2
2022/03/23 00:01:28;;;;;;;42.95;22.45;;;6.70;93.40;;;;;;5070736;28;20258;-49
2022/03/23 00:03:55;;;;;;;33.45;22.95;;;6.80;93.30;;;;;;5015964;28;1721378;-47
2022/03/23 00:06:24;;;;;;;42.30;21.73;;;6.90;93.30;;;;;;5070814;28;20251;-48
2022/03/23 00:08:51;;;;;;;35.55;22.15;;;6.70;93.70;;;;;;5071006;28;20238;-49
2022/03/23 00:11:19;;;;;;;41.90;23.20;;;6.30;94.50;;;;;;5072862;28;20516;-46
2022/03/23 00:13:47;;;;;;;47.75;25.50;;;6.20;95.30;;;;;;5069351;28;20196;-48
2022/03/23 00:16:15;;;;;;;42.83;23.17;;;6.10;95.60;;;;;;5072020;28;20240;-48
2022/03/23 00:18:42;;;;;;;38.58;23.40;;;6.20;96.00;;;;;;5069684;28;20226;-47
2022/03/23 00:21:10;;;;;;;48.65;25.85;;;6.10;96.10;;;;;;5073056;28;20241;-49
2022/03/23 00:23:38;;;;;;;46.70;26.13;;;6.00;96.60;;;;;;5069517;28;20222;-50
2022/03/23 00:26:06;;;;;;;41.80;24.90;;;5.90;97.00;;;;;;5074064;28;20203;-44
2022/03/23 00:28:34;;;;;;;41.38;25.48;;;6.10;97.10;;;;;;5068928;28;20255;-48
2022/03/23 00:31:01;;;;;;;39.25;24.17;;;6.20;97.20;;;;;;5069332;28;20388;-45
2022/03/23 00:33:33;;;;;;;37.83;25.80;;;6.20;96.70;;;;;;5070565;28;20199;-46
2022/03/23 00:36:01;;;;;;;36.88;23.77;;;6.10;96.80;;;;;;5077337;28;20196;-47
2022/03/23 00:38:28;;;;;;;45.13;25.67;;;5.90;97.70;;;;;;5071748;28;20406;-49
2022/03/23 00:40:56;;;;;;;44.85;25.98;;;5.80;98.20;;;;;;5072498;28;20219;-49
2022/03/23 00:43:23;;;;;;;52.10;26.98;;;5.60;98.70;;;;;;5076263;28;20371;-47
2022/03/23 00:45:50;;;;;;;39.00;25.60;;;5.60;99.10;;;;;;5075006;28;20222;-47
2022/03/23 00:48:18;;;;;;;44.88;26.17;;;5.50;99.40;;;;;;5082273;28;20497;-48
2022/03/23 00:50:46;;;;;;;43.65;25.10;;;5.30;99.90;;;;;;5071888;28;20215;-45
2022/03/23 00:53:14;;;;;;;51.00;26.13;;;5.20;99.90;;;;;;5069516;28;20247;-46
2022/03/23 00:55:45;;;;;;;40.97;26.95;;;5.40;99.90;;;;;;5071113;28;20518;-47
2022/03/23 00:58:12;;;;;;;44.58;27.30;;;5.20;99.90;;;;;;5074508;28;20190;-46
2022/03/23 01:00:41;;;;;;;38.80;24.10;;;5.20;99.90;;;;;;5072218;28;20231;-49
2022/03/23 01:03:09;;;;;;;33.15;25.67;;;5.10;99.90;;;;;;5073673;28;20194;-45
2022/03/23 01:05:38;;;;;;;39.72;24.55;;;5.00;99.90;;;;;;5069735;28;20204;-48
2022/03/23 01:08:05;;;;;;;47.67;28.13;;;5.00;99.90;;;;;;5074307;28;20246;-47
2022/03/23 01:10:34;;;;;;;42.67;27.10;;;5.00;99.90;;;;;;5072391;28;20339;-45
2022/03/23 01:13:02;;;;;;;44.25;27.55;;;5.00;99.90;;;;;;5077785;28;20195;-47
2022/03/23 01:15:30;;;;;;;43.85;26.30;;;5.00;99.90;;;;;;5070402;28;20202;-46
2022/03/23 01:17:57;;;;;;;47.95;26.30;;;4.90;99.90;;;;;;5072458;28;20266;-46
2022/03/23 01:20:25;;;;;;;45.35;26.13;;;4.80;99.90;;;;;;5070852;28;20238;-46
2022/03/23 01:22:55;;;;;;;44.35;27.05;;;4.80;99.90;;;;;;5076917;28;20329;-46
2022/03/23 01:25:23;;;;;;;42.67;28.13;;;4.90;99.90;;;;;;5066237;28;20267;-46
2022/03/23 01:27:51;;;;;;;44.03;27.92;;;4.90;99.90;;;;;;5070867;28;20246;-45
2022/03/23 01:30:18;;;;;;;53.90;31.65;;;4.80;99.90;;;;;;5065611;28;20226;-49
2022/03/23 01:32:45;;;;;;;47.40;30.52;;;4.60;99.90;;;;;;5071653;28;20245;-50
2022/03/23 01:35:13;;;;;;;47.90;30.15;;;4.50;99.90;;;;;;5069147;28;20240;-45
2022/03/23 01:37:42;;;;;;;57.22;33.08;;;4.30;99.90;;;;;;5064264;28;20206;-48
2022/03/23 01:40:11;;;;;;;51.85;30.48;;;4.10;99.90;;;;;;5076262;28;20267;-46
2022/03/23 01:42:39;;;;;;;56.70;30.23;;;4.10;99.90;;;;;;5071276;28;20217;-49
2022/03/23 01:45:09;;;;;;;52.50;32.33;;;4.10;99.90;;;;;;5073382;28;20206;-47
2022/03/23 01:47:36;;;;;;;47.28;31.50;;;4.10;99.90;;;;;;5069111;28;20225;-45
2022/03/23 01:50:05;;;;;;;43.35;28.70;;;4.10;99.90;;;;;;5072064;28;20553;-47
2022/03/23 01:52:33;;;;;;;54.10;31.30;;;4.10;99.90;;;;;;5071497;28;20387;-47
2022/03/23 01:55:08;;;;;;;52.17;30.52;;;4.00;99.90;;;;;;5072508;28;20268;-45
2022/03/23 01:57:38;;;;;;;49.97;31.95;;;3.90;99.90;;;;;;5068954;28;20201;-45
2022/03/23 02:00:07;;;;;;;44.67;26.75;;;3.90;99.90;;;;;;5068512;28;20234;-48
2022/03/23 02:02:34;;;;;;;46.78;28.00;;;3.60;99.90;;;;;;5064144;28;20444;-45
2022/03/23 02:05:03;;;;;;;56.95;29.38;;;3.50;99.90;;;;;;5072555;28;20210;-45
2022/03/23 02:07:31;;;;;;;51.80;29.67;;;3.40;99.90;;;;;;5069070;28;20240;-48
2022/03/23 02:09:59;;;;;;;53.30;30.92;;;3.30;99.90;;;;;;5071689;28;20230;-47
2022/03/23 02:12:30;;;;;;;51.70;31.58;;;3.30;99.90;;;;;;5069162;28;20225;-47
2022/03/23 02:14:59;;;;;;;52.25;29.70;;;3.40;99.90;;;;;;5072212;28;20202;-45
2022/03/23 02:17:27;;;;;;;61.47;29.17;;;3.60;99.90;;;;;;5075364;28;20198;-48
2022/03/23 02:19:54;;;;;;;48.10;29.25;;;3.60;99.90;;;;;;5070362;28;20203;-47
2022/03/23 02:22:21;;;;;;;51.92;31.05;;;3.50;99.90;;;;;;5071610;28;20216;-46
2022/03/23 02:24:50;;;;;;;52.17;30.85;;;3.50;99.90;;;;;;5069549;28;20428;-46
2022/03/23 02:27:19;;;;;;;48.30;29.08;;;3.50;99.90;;;;;;5072564;28;20200;-45
2022/03/23 02:29:46;;;;;;;56.20;32.60;;;3.50;99.90;;;;;;5067198;28;20226;-45
2022/03/23 02:32:14;;;;;;;60.33;31.80;;;3.30;99.90;;;;;;5069154;28;20198;-46
2022/03/23 02:34:41;;;;;;;47.55;31.45;;;3.10;99.90;;;;;;5075274;28;20209;-45
2022/03/23 02:37:08;;;;;;;50.97;29.40;;;3.20;99.90;;;;;;5074152;28;20442;-46
2022/03/23 02:39:35;;;;;;;47.08;29.25;;;3.50;99.90;;;;;;5068475;28;20224;-48
2022/03/23 02:42:03;;;;;;;55.80;30.83;;;3.40;99.90;;;;;;5071976;28;20222;-45
2022/03/23 02:44:32;;;;;;;60.67;31.98;;;3.30;99.90;;;;;;5069119;28;20225;-47
2022/03/23 02:46:59;;;;;;;49.60;30.95;;;3.60;99.90;;;;;;5077875;28;20478;-45
2022/03/23 02:49:26;;;;;;;46.63;28.48;;;3.70;99.90;;;;;;5070219;28;20225;-48
2022/03/23 02:51:53;;;;;;;51.58;30.83;;;3.70;99.90;;;;;;5069624;28;20274;-47
2022/03/23 03:03:01;;;;;;;52.55;29.13;;;3.70;99.90;;;;;;5076420;28;20517;-45
2022/03/23 03:05:28;;;;;;;55.53;32.55;;;3.70;99.90;;;;;;5073002;28;20210;-45
2022/03/23 03:10:44;;;;;;;42.58;26.60;;;3.70;99.90;;;;;;5071676;28;20245;-47
2022/03/23 03:13:12;;;;;;;41.15;28.30;;;3.60;99.90;;;;;;5075092;28;20211;-47
2022/03/23 03:15:39;;;;;;;46.20;28.60;;;3.60;99.90;;;;;;5075729;28;20213;-47
2022/03/23 03:18:07;;;;;;;51.42;27.33;;;3.80;99.90;;;;;;5078984;28;20198;-46
2022/03/23 03:20:34;;;;;;;43.70;28.15;;;4.00;99.90;;;;;;5072699;28;20222;-46
2022/03/23 03:23:01;;;;;;;50.45;28.75;;;4.00;99.90;;;;;;5077022;28;20232;-48
2022/03/23 03:25:28;;;;;;;55.78;29.35;;;4.00;99.90;;;;;;5073505;28;20202;-43
2022/03/23 03:27:55;;;;;;;46.17;29.75;;;3.90;99.90;;;;;;5074905;28;20204;-45
2022/03/23 03:30:22;;;;;;;49.88;30.10;;;3.70;99.90;;;;;;5068387;28;20236;-48
2022/03/23 03:32:50;;;;;;;45.20;28.90;;;3.50;99.90;;;;;;5072381;28;20248;-48
2022/03/23 03:35:17;;;;;;;49.63;30.42;;;3.20;99.90;;;;;;5075643;28;20204;-46
2022/03/23 03:37:44;;;;;;;52.55;28.73;;;3.10;99.90;;;;;;5072267;28;20202;-45
2022/03/23 03:40:12;;;;;;;53.45;30.52;;;3.00;99.90;;;;;;5077266;28;20274;-47
2022/03/23 03:42:39;;;;;;;49.45;28.02;;;2.90;99.90;;;;;;5072033;28;20206;-47
2022/03/23 03:45:08;;;;;;;44.88;28.27;;;2.90;99.90;;;;;;5080306;28;20213;-47
2022/03/23 03:47:35;;;;;;;52.83;31.83;;;2.90;99.90;;;;;;5072071;28;20209;-46
2022/03/23 03:50:03;;;;;;;62.20;30.95;;;2.70;99.90;;;;;;5076110;28;20303;-45
2022/03/23 03:52:30;;;;;;;43.88;30.05;;;2.70;99.90;;;;;;5072884;28;20405;-48
2022/03/23 03:54:57;;;;;;;54.03;31.35;;;2.70;99.90;;;;;;5073290;28;20198;-48
2022/03/23 03:57:24;;;;;;;46.92;31.48;;;2.90;99.90;;;;;;5073761;28;20219;-47
2022/03/23 03:59:51;;;;;;;50.90;32.08;;;2.70;99.90;;;;;;5072776;28;20460;-48
2022/03/23 04:02:19;;;;;;;48.53;30.95;;;2.80;99.90;;;;;;5075609;28;20207;-44
2022/03/23 04:04:46;;;;;;;48.38;30.58;;;2.60;99.90;;;;;;5071691;28;20222;-46
2022/03/23 04:07:14;;;;;;;48.33;32.30;;;2.40;99.90;;;;;;5066584;28;20499;-46
2022/03/23 04:09:41;;;;;;;49.05;30.38;;;2.10;99.90;;;;;;5070808;28;20228;-45
2022/03/23 04:12:09;;;;;;;53.92;32.90;;;2.00;99.90;;;;;;5079413;28;20461;-46
2022/03/23 04:14:37;;;;;;;50.50;32.03;;;1.90;99.90;;;;;;5071642;28;20201;-50
2022/03/23 04:17:04;;;;;;;54.92;31.40;;;1.90;99.90;;;;;;5078365;28;20254;-47
2022/03/23 04:19:32;;;;;;;46.60;29.38;;;2.00;99.90;;;;;;5076935;28;20202;-47
2022/03/23 04:21:59;;;;;;;52.28;33.67;;;2.10;99.90;;;;;;5074118;28;20224;-46
2022/03/23 04:24:26;;;;;;;51.10;31.77;;;2.10;99.90;;;;;;5072785;28;20208;-45
2022/03/23 04:26:54;;;;;;;57.40;32.60;;;2.00;99.90;;;;;;5075642;28;20526;-47
2022/03/23 04:29:24;;;;;;;53.40;30.58;;;2.00;99.90;;;;;;5069801;28;20229;-48
2022/03/23 04:31:52;;;;;;;48.08;31.77;;;1.90;99.90;;;;;;5070954;28;20435;-45
2022/03/23 04:34:20;;;;;;;52.97;32.67;;;2.00;99.90;;;;;;5074674;28;20530;-47
2022/03/23 04:36:47;;;;;;;54.17;33.35;;;1.80;99.90;;;;;;5071029;28;20212;-45
2022/03/23 04:39:14;;;;;;;49.60;30.45;;;1.80;99.90;;;;;;5073395;28;20240;-48
2022/03/23 04:41:41;;;;;;;58.80;30.90;;;1.90;99.90;;;;;;5070898;28;20232;-45
2022/03/23 04:44:08;;;;;;;50.53;31.75;;;2.10;99.90;;;;;;5076405;28;20516;-46
2022/03/23 04:46:35;;;;;;;54.53;31.77;;;2.10;99.90;;;;;;5065948;28;20208;-48
2022/03/23 04:49:03;;;;;;;52.17;32.83;;;2.30;99.90;;;;;;5074217;28;20221;-47
2022/03/23 04:51:31;;;;;;;58.95;32.13;;;2.30;99.90;;;;;;5074131;28;20233;-46
2022/03/23 04:54:00;;;;;;;47.78;29.45;;;2.50;99.90;;;;;;5073684;28;20201;-45
2022/03/23 04:56:27;;;;;;;107.40;55.70;;;2.40;99.90;;;;;;5071825;28;20303;-44
2022/03/23 04:58:54;;;;;;;49.30;30.13;;;2.40;99.90;;;;;;5068188;28;20200;-44
2022/03/23 05:01:22;;;;;;;50.08;28.52;;;2.40;99.90;;;;;;5076073;28;20241;-48
2022/03/23 05:03:50;;;;;;;52.95;30.88;;;2.40;99.90;;;;;;5071076;28;20215;-46
2022/03/23 05:06:17;;;;;;;45.63;28.25;;;2.60;99.90;;;;;;5074616;28;20206;-45
2022/03/23 05:08:45;;;;;;;48.90;30.95;;;2.60;99.90;;;;;;5070594;28;20203;-50
2022/03/23 05:11:12;;;;;;;50.17;29.35;;;2.70;99.90;;;;;;5075846;28;20234;-45
2022/03/23 05:13:40;;;;;;;52.38;28.88;;;2.90;99.90;;;;;;5070745;28;20197;-48
2022/03/23 05:16:07;;;;;;;45.40;29.33;;;3.10;99.90;;;;;;5076170;28;20276;-46
2022/03/23 05:18:35;;;;;;;46.70;28.73;;;3.30;99.90;;;;;;5070482;28;20406;-46
2022/03/23 05:21:02;;;;;;;45.88;28.60;;;3.50;99.90;;;;;;5074462;28;20219;-49
2022/03/23 05:23:30;;;;;;;43.53;29.23;;;3.70;99.90;;;;;;5071737;28;20241;-45
2022/03/23 05:25:59;;;;;;;49.25;30.83;;;4.20;99.90;;;;;;5078541;28;20206;-44
2022/03/23 05:28:33;;;;;;;48.25;31.13;;;4.70;99.90;;;;;;5075865;28;20252;-45
2022/03/23 05:31:01;;;;;;;45.60;29.38;;;5.20;99.90;;;;;;5072662;28;20247;-48
2022/03/23 05:33:28;;;;;;;51.28;28.30;;;5.80;99.90;;;;;;5071899;28;20506;-49
2022/03/23 05:35:55;;;;;;;56.10;30.80;;;6.30;99.90;;;;;;5074624;28;20298;-46
2022/03/23 05:38:22;;;;;;;46.63;30.17;;;6.70;99.90;;;;;;5077356;28;20194;-46
2022/03/23 05:40:50;;;;;;;59.70;28.70;;;7.20;99.90;;;;;;5066370;28;20239;-47
2022/03/23 05:43:19;;;;;;;62.80;33.88;;;7.70;99.90;;;;;;5075309;28;20237;-46
2022/03/23 05:45:46;;;;;;;42.90;28.60;;;8.40;99.90;;;;;;5070648;28;20205;-48
2022/03/23 05:48:14;;;;;;;61.97;43.65;;;9.10;99.90;;;;;;5071293;28;20197;-45
2022/03/23 05:50:41;;;;;;;46.38;30.85;;;9.60;99.90;;;;;;5070614;28;20230;-46
2022/03/23 05:53:08;;;;;;;44.33;25.55;;;10.30;99.90;;;;;;5090103;28;20212;-47
2022/03/23 05:55:35;;;;;;;52.83;31.38;;;10.80;99.90;;;;;;5100466;28;20588;-46
2022/03/23 05:58:06;;;;;;;45.35;30.05;;;11.20;99.80;;;;;;5101531;28;20194;-49
2022/03/23 06:00:37;;;;;;;41.00;28.15;;;12.30;97.70;;;;;;5099581;28;20225;-46
2022/03/23 06:03:04;;;;;;;47.78;28.20;;;12.80;94.70;;;;;;5101031;28;20210;-45
2022/03/23 06:05:32;;;;;;;40.33;29.65;;;13.00;93.30;;;;;;5104107;28;20417;-45
2022/03/23 06:07:59;;;;;;;46.90;30.05;;;12.90;93.40;;;;;;5103194;28;20207;-45
2022/03/23 06:10:27;;;;;;;38.20;27.38;;;13.00;92.00;;;;;;5100498;28;20230;-50
2022/03/23 06:12:54;;;;;;;42.17;28.87;;;13.00;91.30;;;;;;5100129;28;20517;-48
2022/03/23 06:15:22;;;;;;;44.17;29.03;;;13.20;90.90;;;;;;5100638;28;20439;-46
2022/03/23 06:17:50;;;;;;;39.83;28.70;;;13.60;89.00;;;;;;5100412;28;20408;-48
2022/03/23 06:20:17;;;;;;;51.90;32.10;;;14.40;85.70;;;;;;5100358;28;20457;-47
2022/03/23 06:22:44;;;;;;;46.37;29.53;;;15.10;81.70;;;;;;5100258;28;20611;-49
2022/03/23 06:25:11;;;;;;;37.40;28.37;;;15.00;81.10;;;;;;5100895;28;20410;-46
2022/03/23 06:27:40;;;;;;;46.03;29.50;;;15.90;78.50;;;;;;5097175;28;20458;-47
2022/03/23 06:30:08;;;;;;;41.93;28.30;;;16.20;75.90;;;;;;5079335;28;20470;-46
2022/03/23 06:32:35;;;;;;;45.47;30.13;;;17.10;72.60;;;;;;5081505;28;20424;-49
2022/03/23 06:35:04;;;;;;;35.47;27.47;;;17.80;68.50;;;;;;5082573;28;20402;-48
2022/03/23 06:37:31;;;;;;;45.47;28.53;;;18.20;66.00;;;;;;5083251;28;20424;-49
2022/03/23 06:39:58;;;;;;;42.23;27.23;;;19.40;64.10;;;;;;5083241;28;20470;-47
2022/03/23 06:42:27;;;;;;;42.73;26.70;;;20.50;59.60;;;;;;5083549;28;20750;-51
2022/03/23 06:44:54;;;;;;;38.10;27.43;;;20.10;57.70;;;;;;5085474;28;20511;-50
2022/03/23 06:47:22;;;;;;;36.57;26.77;;;19.90;57.60;;;;;;5083606;28;20436;-51
2022/03/23 06:49:49;;;;;;;40.03;27.77;;;19.10;58.70;;;;;;5083157;28;20411;-49
2022/03/23 06:52:17;;;;;;;49.27;27.10;;;19.50;58.50;;;;;;5082459;28;20475;-50
2022/03/23 06:54:45;;;;;;;42.93;28.73;;;20.30;57.50;;;;;;5081884;28;20420;-47
2022/03/23 06:57:12;;;;;;;41.87;28.73;;;21.00;55.20;;;;;;5081869;28;20405;-48
2022/03/23 06:59:39;;;;;;;47.30;28.80;;;22.50;53.30;;;;;;5083265;28;20473;-51
2022/03/23 07:02:08;;;;;;;36.93;27.43;;;22.90;51.70;;;;;;5083022;28;20451;-50
2022/03/23 07:04:35;;;;;;;49.83;28.63;;;24.00;49.90;;;;;;5082874;28;20512;-49
2022/03/23 07:07:02;;;;;;;45.23;28.03;;;24.80;48.60;;;;;;5082620;28;20428;-49
2022/03/23 07:09:34;;;;;;;44.37;29.07;;;24.00;48.70;;;;;;5083251;28;20431;-48
2022/03/23 07:12:05;;;;;;;43.00;27.80;;;24.10;47.50;;;;;;5082970;28;20512;-49
2022/03/23 07:14:34;;;;;;;36.20;27.53;;;25.50;46.30;;;;;;5082467;28;20436;-50
2022/03/23 07:17:01;;;;;;;43.23;28.43;;;25.50;45.00;;;;;;5082934;28;20431;-49
2022/03/23 07:19:28;;;;;;;29.63;25.60;;;26.90;44.10;;;;;;5082190;28;20461;-48
2022/03/23 07:21:57;;;;;;;44.60;30.70;;;27.00;43.20;;;;;;5082349;28;20483;-51
2022/03/23 07:24:26;;;;;;;43.50;30.60;;;27.70;42.10;;;;;;5082500;28;20514;-46
2022/03/23 07:26:53;;;;;;;40.93;28.70;;;26.30;41.90;;;;;;5082569;28;20430;-48
2022/03/23 07:29:40;;;;;;;37.97;28.37;;;25.70;43.00;;;;;;5082236;28;20432;-49
2022/03/23 07:32:09;;;;;;;41.43;29.00;;;25.90;42.50;;;;;;5082468;28;20474;-47
2022/03/23 07:34:36;;;;;;;49.50;29.20;;;27.10;41.30;;;;;;5081982;28;20739;-49
2022/03/23 07:37:03;;;;;;;49.47;29.47;;;27.30;40.60;;;;;;5082368;28;20434;-48
2022/03/23 07:39:31;;;;;;;39.40;29.00;;;27.60;39.90;;;;;;5081836;28;20462;-50
2022/03/23 07:42:00;;;;;;;41.03;28.37;;;27.40;40.00;;;;;;5081913;28;20435;-48
2022/03/23 07:44:27;;;;;;;39.57;27.90;;;27.40;40.30;;;;;;5081900;28;20450;-48
2022/03/23 07:46:54;;;;;;;37.63;26.70;;;28.10;39.70;;;;;;5083162;28;20450;-51
2022/03/23 07:49:21;;;;;;;33.90;27.80;;;27.70;38.90;;;;;;5085785;28;20456;-47
2022/03/23 07:51:49;;;;;;;32.00;27.67;;;27.00;40.10;;;;;;5083190;28;20597;-49
2022/03/23 07:54:17;;;;;;;40.47;28.93;;;26.90;40.70;;;;;;5084002;28;20420;-51
2022/03/23 07:56:44;;;;;;;34.07;26.90;;;27.50;39.90;;;;;;5082026;28;20443;-51
2022/03/23 07:59:12;;;;;;;38.03;28.70;;;28.60;39.20;;;;;;5082357;28;20753;-49
2022/03/23 08:01:39;;;;;;;39.77;28.23;;;29.50;37.80;;;;;;5081840;28;20454;-48
2022/03/23 08:04:06;;;;;;;38.40;24.87;;;29.20;38.10;;;;;;5081842;28;20438;-48
2022/03/23 08:06:35;;;;;;;37.30;26.43;;;29.20;37.30;;;;;;5081617;28;20432;-49
2022/03/23 08:09:03;;;;;;;45.97;28.63;;;28.80;37.60;;;;;;5081994;28;20450;-54
2022/03/23 08:11:31;;;;;;;42.43;28.87;;;28.80;38.10;;;;;;5081693;28;20475;-51
2022/03/23 08:14:00;;;;;;;35.77;27.80;;;28.80;37.80;;;;;;5082065;28;20428;-50
2022/03/23 08:16:27;;;;;;;34.33;27.47;;;29.20;37.60;;;;;;5081978;28;20486;-51
2022/03/23 08:18:55;;;;;;;38.17;26.50;;;28.80;37.80;;;;;;5081610;28;20474;-50
2022/03/23 08:21:23;;;;;;;37.50;27.00;;;28.00;38.70;;;;;;5081370;28;20521;-45
2022/03/23 08:23:51;;;;;;;31.87;24.93;;;28.20;38.70;;;;;;5081303;28;20435;-52
2022/03/23 08:26:18;;;;;;;33.57;23.43;;;28.60;38.00;;;;;;5081954;28;20486;-49
2022/03/23 08:28:47;;;;;;;32.83;24.93;;;29.50;37.10;;;;;;5081293;28;20440;-50
2022/03/23 08:31:14;;;;;;;40.03;26.43;;;29.50;36.80;;;;;;5081614;28;20465;-51
2022/03/23 08:33:42;;;;;;;26.60;22.80;;;29.60;36.90;;;;;;5080945;28;20446;-49
2022/03/23 08:36:09;;;;;;;37.37;25.50;;;30.20;36.00;;;;;;5081145;28;20486;-51
2022/03/23 08:38:37;;;;;;;39.67;24.23;;;29.20;36.00;;;;;;5080823;28;20469;-51
2022/03/23 08:41:05;;;;;;;34.20;26.00;;;27.80;37.00;;;;;;5069405;28;20502;-50
2022/03/23 08:43:33;;;;;;;34.30;25.07;;;26.50;38.60;;;;;;5063798;28;20436;-49
2022/03/23 08:46:00;;;;;;;36.60;25.40;;;27.00;38.10;;;;;;5068396;28;20781;-51
2022/03/23 08:48:27;;;;;;;37.43;27.60;;;27.70;37.40;;;;;;5082739;28;20470;-49
2022/03/23 08:50:55;;;;;;;35.20;26.50;;;28.10;37.20;;;;;;5095952;28;20478;-48
2022/03/23 08:53:23;;;;;;;43.17;26.67;;;27.20;37.60;;;;;;5091910;28;20434;-48
2022/03/23 08:55:50;;;;;;;41.10;26.40;;;27.90;37.50;;;;;;5100290;28;20438;-52
2022/03/23 08:58:19;;;;;;;33.43;25.63;;;28.40;37.10;;;;;;5101233;28;20626;-49
2022/03/23 09:00:47;;;;;;;34.63;27.00;;;28.80;36.30;;;;;;5085753;28;20471;-50
2022/03/23 09:03:15;;;;;;;30.83;24.13;;;26.60;38.10;;;;;;5086044;28;20413;-51
2022/03/23 09:05:42;;;;;;;31.67;23.93;;;26.70;38.10;;;;;;5101070;28;20433;-49
2022/03/23 09:08:10;;;;;;;41.10;24.23;;;27.30;37.40;;;;;;5070188;28;20438;-50
2022/03/23 09:10:37;;;;;;;30.13;23.83;;;27.60;37.60;;;;;;5084227;28;20486;-46
2022/03/23 09:13:04;;;;;;;34.03;25.40;;;28.80;36.30;;;;;;5098349;28;20769;-48
2022/03/23 09:15:31;;;;;;;30.53;21.60;;;28.10;36.50;;;;;;5100597;28;20473;-50
2022/03/23 09:18:03;;;;;;;26.23;21.50;;;26.10;37.60;;;;;;5100597;28;20441;-49
2022/03/23 09:20:30;;;;;;;25.33;17.80;;;25.40;37.80;;;;;;5100089;28;20533;-52
2022/03/23 09:22:58;;;;;;;22.43;18.80;;;25.50;37.60;;;;;;5100384;28;20427;-47
2022/03/23 09:25:26;;;;;;;36.90;22.07;;;26.20;37.30;;;;;;5089468;28;20564;-53
2022/03/23 09:27:53;;;;;;;24.67;18.40;;;26.00;37.10;;;;;;5084535;28;20772;-49
2022/03/23 09:30:21;;;;;;;27.93;20.73;;;25.80;36.80;;;;;;5081211;28;20460;-50
2022/03/23 09:32:49;;;;;;;30.83;22.20;;;25.40;37.40;;;;;;5096912;28;20430;-51
2022/03/23 09:35:17;;;;;;;29.73;21.10;;;25.20;38.50;;;;;;5100364;28;20405;-47
2022/03/23 09:37:47;;;;;;;32.67;18.93;;;24.00;40.20;;;;;;5070153;28;20482;-48
2022/03/23 09:40:20;;;;;;;26.17;18.33;;;22.10;41.50;;;;;;5080437;28;20629;-49
2022/03/23 09:42:48;;;;;;;26.17;18.20;;;20.50;43.70;;;;;;5079806;28;20704;-48
2022/03/23 09:45:38;;;;;;;23.63;17.87;;;19.50;45.30;;;;;;5081819;28;20615;-49
2022/03/23 09:48:09;;;;;;;26.07;17.67;;;19.50;45.30;;;;;;5064224;28;20409;-52
2022/03/23 09:50:42;;;;;;;28.53;18.77;;;19.30;45.30;;;;;;5073297;28;20427;-47
2022/03/23 09:53:10;;;;;;;22.33;16.40;;;19.20;45.80;;;;;;5092035;28;20410;-49
2022/03/23 09:55:37;;;;;;;24.30;17.40;;;19.10;46.10;;;;;;5085845;28;20435;-48
2022/03/23 09:58:09;;;;;;;22.17;15.57;;;19.10;46.30;;;;;;5070817;28;20860;-51
2022/03/23 10:00:41;;;;;;;25.87;16.37;;;18.80;46.00;;;;;;5079262;28;20435;-50
2022/03/23 10:03:12;;;;;;;29.90;19.23;;;18.50;47.10;;;;;;5079916;28;20404;-48
2022/03/23 10:05:51;;;;;;;25.70;16.20;;;18.30;47.40;;;;;;5079361;28;20444;-47
2022/03/23 10:08:48;;;;;;;15.60;13.33;;;18.20;47.20;;;;;;5071724;28;20414;-49
2022/03/23 10:11:53;;;;;;;16.97;11.97;;;18.50;45.90;;;;;;5085785;28;20449;-51
2022/03/23 10:14:45;;;;;;;15.63;12.87;;;18.60;45.20;;;;;;5089279;28;20429;-53
2022/03/23 10:17:47;;;;;;;13.23;11.00;;;18.50;45.30;;;;;;5092125;28;20432;-50
2022/03/23 10:20:15;;;;;;;15.83;11.27;;;18.30;45.50;;;;;;5092354;28;20779;-48
2022/03/23 10:22:51;;;;;;;14.37;11.50;;;18.30;45.90;;;;;;5099919;28;20746;-47
2022/03/23 10:25:21;;;;;;;17.97;11.07;;;18.40;45.90;;;;;;5104370;28;20668;-50
2022/03/23 10:27:48;;;;;;;14.73;12.17;;;18.80;46.10;;;;;;5103976;28;20397;-47
2022/03/23 10:30:16;;;;;;;11.60;10.00;;;18.80;44.70;;;;;;5093159;28;20431;-47
2022/03/23 10:32:44;;;;;;;14.43;10.20;;;18.70;44.10;;;;;;5099324;28;20654;-49
2022/03/23 10:35:14;;;;;;;9.80;8.33;;;18.90;44.90;;;;;;5103853;28;20428;-50
2022/03/23 10:37:43;;;;;;;13.87;9.30;;;19.00;42.40;;;;;;5103562;28;20427;-50
2022/03/23 10:40:17;;;;;;;13.00;10.47;;;18.90;43.20;;;;;;5103194;28;20794;-48
2022/03/23 10:42:48;;;;;;;10.10;8.63;;;19.00;43.80;;;;;;5103529;28;20456;-48
2022/03/23 10:45:19;;;;;;;10.77;9.70;;;19.20;42.60;;;;;;5103234;28;20432;-49
2022/03/23 10:47:49;;;;;;;9.50;8.20;;;19.10;43.90;;;;;;5080052;28;20518;-54
2022/03/23 10:50:23;;;;;;;11.53;9.47;;;19.10;42.70;;;;;;5090125;28;20442;-47
2022/03/23 10:52:55;;;;;;;12.27;9.77;;;19.20;43.00;;;;;;5077688;28;20445;-52
2022/03/23 10:55:25;;;;;;;16.77;10.17;;;19.10;44.10;;;;;;5076045;28;20795;-47
2022/03/23 10:58:01;;;;;;;18.33;10.50;;;19.10;42.40;;;;;;5083272;28;20449;-48
2022/03/23 11:00:36;;;;;;;9.73;8.60;;;19.10;43.40;;;;;;5082913;28;20439;-50
2022/03/23 11:03:05;;;;;;;7.47;6.53;;;19.10;44.70;;;;;;5081829;28;20431;-49
2022/03/23 11:05:34;;;;;;;11.20;9.10;;;19.10;41.80;;;;;;5082973;28;20415;-47
2022/03/23 11:08:11;;;;;;;11.90;9.33;;;19.40;41.80;;;;;;5082812;28;20807;-47
2022/03/23 11:16:33;;;;;;;14.43;10.50;;;19.40;42.70;;;;;;5082950;28;20408;-47
2022/03/23 11:19:11;;;;;;;10.60;8.00;;;19.10;43.80;;;;;;5081945;28;20433;-50
2022/03/23 11:21:58;;;;;;;16.33;8.20;;;19.30;42.70;;;;;;5082336;28;20445;-49
2022/03/23 11:24:27;;;;;;;8.17;7.23;;;19.30;43.60;;;;;;5081301;28;20456;-48
2022/03/23 11:26:55;;;;;;;11.93;8.33;;;19.50;41.80;;;;;;5087379;28;20432;-49
2022/03/23 11:29:23;;;;;;;9.13;8.10;;;19.60;41.80;;;;;;5096532;28;20615;-48
2022/03/23 11:31:53;;;;;;;10.53;7.67;;;19.40;42.40;;;;;;5102637;28;20520;-49
2022/03/23 11:34:23;;;;;;;12.17;8.20;;;19.50;42.10;;;;;;5102926;28;20430;-47
2022/03/23 11:36:53;;;;;;;10.13;9.13;;;19.60;41.40;;;;;;5102880;28;20588;-51
2022/03/23 11:39:22;;;;;;;9.67;7.97;;;19.70;41.90;;;;;;5102432;28;20584;-50
2022/03/23 11:41:53;;;;;;;7.97;7.17;;;19.50;42.60;;;;;;5102012;28;20741;-50
2022/03/23 11:44:21;;;;;;;8.17;7.30;;;19.30;42.70;;;;;;5101522;28;20403;-51
2022/03/23 11:46:51;;;;;;;9.80;7.70;;;19.40;43.30;;;;;;5102081;28;20407;-48
2022/03/23 11:49:29;;;;;;;11.10;6.73;;;19.50;42.60;;;;;;5102967;28;20488;-48
2022/03/23 11:52:23;;;;;;;12.63;7.40;;;19.60;42.30;;;;;;5102249;28;20473;-50
2022/03/23 11:57:56;;;;;;;8.33;6.70;;;19.60;42.80;;;;;;5102268;28;20483;-50
2022/03/23 12:00:27;;;;;;;7.77;6.07;;;19.70;42.20;;;;;;5102134;28;20415;-48
2022/03/23 12:02:56;;;;;;;8.07;6.10;;;19.70;42.30;;;;;;5101848;28;20419;-46
2022/03/23 12:05:29;;;;;;;6.73;5.93;;;19.70;42.10;;;;;;5102001;28;20503;-50
2022/03/23 12:08:03;;;;;;;8.23;6.23;;;19.90;42.40;;;;;;5102064;28;20443;-49
2022/03/23 12:10:32;;;;;;;9.47;5.90;;;19.80;42.70;;;;;;5070125;28;20779;-48
2022/03/23 12:13:15;;;;;;;11.30;6.33;;;19.80;42.90;;;;;;5074527;28;20453;-50
2022/03/23 12:15:59;;;;;;;9.50;6.97;;;19.80;42.20;;;;;;5093077;28;20722;-46
2022/03/23 12:19:03;;;;;;;8.83;6.60;;;19.80;42.10;;;;;;5101931;28;20479;-49
2022/03/23 12:21:54;;;;;;;7.57;6.13;;;19.70;42.30;;;;;;5084199;28;20460;-48
2022/03/23 12:24:55;;;;;;;8.20;6.47;;;19.60;42.60;;;;;;5060436;28;20443;-47
2022/03/23 12:27:46;;;;;;;8.57;6.77;;;19.70;42.50;;;;;;5074397;28;20443;-50
2022/03/23 12:30:17;;;;;;;7.77;5.67;;;19.80;43.60;;;;;;5080606;28;20464;-49
2022/03/23 12:32:44;;;;;;;10.03;6.47;;;19.90;42.10;;;;;;5071848;28;20457;-49
2022/03/23 12:35:12;;;;;;;7.03;5.70;;;20.10;42.20;;;;;;5065137;28;20407;-49
2022/03/23 12:37:42;;;;;;;9.03;6.00;;;20.20;42.10;;;;;;5080641;28;20407;-50
2022/03/23 12:40:12;;;;;;;6.23;5.60;;;20.20;41.70;;;;;;5081007;28;20420;-49
2022/03/23 12:42:46;;;;;;;6.90;5.40;;;20.10;41.60;;;;;;5080651;28;20632;-51
2022/03/23 12:45:18;;;;;;;6.63;6.03;;;20.30;41.90;;;;;;5081295;28;20412;-48
2022/03/23 12:47:53;;;;;;;5.80;5.30;;;20.20;42.60;;;;;;5080262;28;20404;-49
2022/03/23 12:59:23;;;;;;;8.60;5.63;;;20.60;40.20;;;;;;5080318;28;20658;-47
2022/03/23 13:02:23;;;;;;;7.33;4.80;;;20.70;39.40;;;;;;5081199;28;20478;-51
2022/03/23 13:04:54;;;;;;;7.70;5.30;;;20.60;39.40;;;;;;5069110;28;20417;-51
2022/03/23 13:07:30;;;;;;;3.53;3.23;;;20.80;39.10;;;;;;5074290;28;20428;-48
2022/03/23 13:10:05;;;;;;;6.10;4.83;;;20.80;37.60;;;;;;5088539;28;20485;-50
2022/03/23 13:12:32;;;;;;;5.97;4.47;;;21.00;37.80;;;;;;5080299;28;20531;-47
2022/03/23 13:15:00;;;;;;;6.07;4.73;;;21.00;38.20;;;;;;5073406;28;20446;-48